createdAt,value
2017-06-13T00:01:04.723Z,8.30
2017-06-13T00:03:32.400Z,8.63
2017-06-13T00:05:59.936Z,8.30
2017-06-13T00:08:27.451Z,7.55
2017-06-13T00:10:54.944Z,9.50
2017-06-13T00:13:22.499Z,10.73
2017-06-13T00:15:50.219Z,10.23
2017-06-13T00:18:17.731Z,8.57
2017-06-13T00:20:45.673Z,8.07
2017-06-13T00:23:13.380Z,10.32
2017-06-13T00:25:40.888Z,9.20
2017-06-13T00:28:08.603Z,10.27
2017-06-13T00:30:36.543Z,12.00
2017-06-13T00:33:04.034Z,10.25
2017-06-13T00:35:31.743Z,12.10
2017-06-13T00:37:59.519Z,12.52
2017-06-13T00:40:27.147Z,11.00
2017-06-13T00:42:54.831Z,9.35
2017-06-13T00:45:23.023Z,10.73
2017-06-13T00:47:50.707Z,9.52
2017-06-13T00:50:18.323Z,11.73
2017-06-13T00:52:45.954Z,9.50
2017-06-13T00:55:14.814Z,14.82
2017-06-13T00:57:42.439Z,10.15
2017-06-13T01:00:09.930Z,10.38
2017-06-13T01:02:37.444Z,13.20
2017-06-13T01:05:05.267Z,11.88
2017-06-13T01:07:32.806Z,12.10
2017-06-13T01:10:00.471Z,11.95
2017-06-13T01:12:28.226Z,13.62
2017-06-13T01:14:55.743Z,12.05
2017-06-13T01:17:23.447Z,10.88
2017-06-13T01:19:51.016Z,11.88
2017-06-13T01:22:19.315Z,14.52
2017-06-13T01:24:47.068Z,11.52
2017-06-13T01:27:15.794Z,12.70
2017-06-13T01:29:43.364Z,11.18
2017-06-13T01:32:10.987Z,13.70
2017-06-13T01:34:38.923Z,13.82
2017-06-13T01:37:06.493Z,10.23
2017-06-13T01:39:34.776Z,10.05
2017-06-13T01:42:02.366Z,12.80
2017-06-13T01:44:30.123Z,9.98
2017-06-13T01:46:57.798Z,15.20
2017-06-13T01:49:25.400Z,11.90
2017-06-13T01:51:52.923Z,14.52
2017-06-13T01:54:20.415Z,10.70
2017-06-13T01:56:47.937Z,11.05
2017-06-13T01:59:15.443Z,9.90
2017-06-13T02:01:43.018Z,10.25
2017-06-13T02:04:10.890Z,15.75
2017-06-13T02:06:38.518Z,13.10
2017-06-13T02:09:06.118Z,12.23
2017-06-13T02:11:33.942Z,12.07
2017-06-13T02:14:01.639Z,10.10
2017-06-13T02:16:29.745Z,9.48
2017-06-13T02:18:57.671Z,15.63
2017-06-13T02:21:26.004Z,16.45
2017-06-13T02:23:54.764Z,15.27
2017-06-13T02:26:22.297Z,12.00
2017-06-13T02:28:50.024Z,9.65
2017-06-13T02:31:17.718Z,11.57
2017-06-13T02:33:45.271Z,10.80
2017-06-13T02:36:12.914Z,14.63
2017-06-13T02:38:40.840Z,8.73
2017-06-13T02:41:08.434Z,11.75
2017-06-13T02:43:35.936Z,10.27
2017-06-13T02:46:03.771Z,11.60
2017-06-13T02:48:31.426Z,10.55
2017-06-13T02:50:58.923Z,17.10
2017-06-13T02:53:26.451Z,10.50
2017-06-13T02:55:53.966Z,12.13
2017-06-13T02:58:21.760Z,11.50
2017-06-13T03:00:49.343Z,13.80
2017-06-13T03:03:17.183Z,19.25
2017-06-13T03:05:44.871Z,14.40
2017-06-13T03:08:12.971Z,8.55
2017-06-13T03:10:42.843Z,11.70
2017-06-13T03:13:10.489Z,15.65
2017-06-13T03:15:37.995Z,11.15
2017-06-13T03:18:06.311Z,13.62
2017-06-13T03:20:33.807Z,9.38
2017-06-13T03:23:01.486Z,9.30
2017-06-13T03:25:30.115Z,12.90
2017-06-13T03:27:57.823Z,11.57
2017-06-13T03:30:25.459Z,13.07
2017-06-13T03:32:53.055Z,13.43
2017-06-13T03:35:21.084Z,14.48
2017-06-13T03:37:48.571Z,18.12
2017-06-13T03:40:16.067Z,13.02
2017-06-13T03:42:43.604Z,10.90
2017-06-13T03:45:11.096Z,11.00
2017-06-13T03:47:38.701Z,10.65
2017-06-13T03:50:06.955Z,11.95
2017-06-13T03:52:34.450Z,10.82
2017-06-13T03:55:02.167Z,12.32
2017-06-13T03:57:29.696Z,14.93
2017-06-13T03:59:57.696Z,16.50
2017-06-13T04:02:25.235Z,13.98
2017-06-13T04:04:52.739Z,16.25
2017-06-13T04:07:20.259Z,11.68
2017-06-13T04:09:47.908Z,12.02
2017-06-13T04:12:15.531Z,16.05
2017-06-13T04:14:43.024Z,9.75
2017-06-13T04:17:10.515Z,10.25
2017-06-13T04:19:38.847Z,11.90
2017-06-13T04:22:06.822Z,9.20
2017-06-13T04:24:34.335Z,9.82
2017-06-13T04:27:02.250Z,14.73
2017-06-13T04:29:30.355Z,13.90
2017-06-13T04:31:57.925Z,12.37
2017-06-13T04:34:27.200Z,7.45
2017-06-13T04:36:54.958Z,9.87
2017-06-13T04:39:23.511Z,9.55
2017-06-13T04:41:51.868Z,10.38
2017-06-13T04:44:19.657Z,14.10
2017-06-13T04:46:47.175Z,9.85
2017-06-13T04:49:14.782Z,8.90
2017-06-13T04:51:42.491Z,9.77
2017-06-13T04:54:10.201Z,8.82
2017-06-13T04:56:37.958Z,12.82
2017-06-13T04:59:05.690Z,10.55
2017-06-13T05:01:33.221Z,12.23
2017-06-13T05:04:00.922Z,12.37
2017-06-13T05:06:28.419Z,10.90
2017-06-13T05:08:56.755Z,6.40
2017-06-13T05:11:24.375Z,8.90
2017-06-13T05:13:52.054Z,9.60
2017-06-13T05:16:19.579Z,10.35
2017-06-13T05:18:47.071Z,10.35
2017-06-13T05:21:14.874Z,10.02
2017-06-13T05:23:42.599Z,9.30
2017-06-13T05:26:10.458Z,9.50
2017-06-13T05:28:37.984Z,12.07
2017-06-13T05:31:05.532Z,9.80
2017-06-13T05:33:33.813Z,7.70
2017-06-13T05:36:01.533Z,14.43
2017-06-13T05:38:29.371Z,8.57
2017-06-13T05:40:56.867Z,7.15
2017-06-13T05:43:24.383Z,9.32
2017-06-13T05:45:52.147Z,6.05
2017-06-13T05:48:20.540Z,8.55
2017-06-13T05:50:48.213Z,7.57
2017-06-13T05:53:15.743Z,7.50
2017-06-13T05:55:43.263Z,7.60
2017-06-13T05:58:11.460Z,6.73
2017-06-13T06:00:39.066Z,9.43
2017-06-13T06:03:06.593Z,10.55
2017-06-13T06:05:34.144Z,9.50
2017-06-13T06:08:02.244Z,5.53
2017-06-13T06:10:30.128Z,8.63
2017-06-13T06:12:58.443Z,6.87
2017-06-13T06:15:26.028Z,12.52
2017-06-13T06:17:53.803Z,6.25
2017-06-13T06:20:21.388Z,5.32
2017-06-13T06:22:49.663Z,7.72
2017-06-13T06:25:17.975Z,7.25
2017-06-13T06:27:45.555Z,6.32
2017-06-13T06:30:13.072Z,5.40
2017-06-13T06:32:40.571Z,7.87
2017-06-13T06:35:08.128Z,7.50
2017-06-13T06:37:35.694Z,8.05
2017-06-13T06:40:03.307Z,4.45
2017-06-13T06:42:30.818Z,5.20
2017-06-13T06:44:58.309Z,6.97
2017-06-13T06:47:25.880Z,4.53
2017-06-13T06:49:53.530Z,8.75
2017-06-13T06:52:21.064Z,5.32
2017-06-13T06:54:49.359Z,4.93
2017-06-13T06:57:16.855Z,4.97
2017-06-13T06:59:44.707Z,5.18
2017-06-13T07:02:12.250Z,6.78
2017-06-13T07:04:39.815Z,4.72
2017-06-13T07:07:07.694Z,5.40
2017-06-13T07:09:35.408Z,6.43
2017-06-13T07:12:05.303Z,4.93
2017-06-13T07:14:33.576Z,5.40
2017-06-13T07:17:01.215Z,2.58
2017-06-13T07:19:29.000Z,2.40
2017-06-13T07:21:56.486Z,5.15
2017-06-13T07:24:24.031Z,5.07
2017-06-13T07:26:51.579Z,10.25
2017-06-13T07:29:19.097Z,3.60
2017-06-13T07:31:46.616Z,5.90
2017-06-13T07:34:14.194Z,5.50
2017-06-13T07:36:41.923Z,2.45
2017-06-13T07:39:10.404Z,6.20
2017-06-13T07:41:37.975Z,2.78
2017-06-13T07:44:05.500Z,3.62
2017-06-13T07:46:33.070Z,14.38
2017-06-13T07:49:00.649Z,3.53
2017-06-13T07:51:28.207Z,4.50
2017-06-13T07:53:55.820Z,4.25
2017-06-13T07:56:23.586Z,3.85
2017-06-13T07:58:51.132Z,5.20
2017-06-13T08:01:18.852Z,4.90
2017-06-13T08:03:46.852Z,4.53
2017-06-13T08:06:14.516Z,3.72
2017-06-13T08:08:42.061Z,2.15
2017-06-13T08:11:10.051Z,2.80
2017-06-13T08:13:37.740Z,4.80
2017-06-13T08:16:05.672Z,5.20
2017-06-13T08:18:33.251Z,5.10
2017-06-13T08:21:01.059Z,3.83
2017-06-13T08:23:28.709Z,3.30
2017-06-13T08:25:56.247Z,5.07
2017-06-13T08:28:23.947Z,4.30
2017-06-13T08:30:51.916Z,4.12
2017-06-13T08:33:20.247Z,5.00
2017-06-13T08:35:48.050Z,5.32
2017-06-13T08:38:15.621Z,5.37
2017-06-13T08:40:43.647Z,4.12
2017-06-13T08:43:11.414Z,4.18
2017-06-13T08:45:38.939Z,2.67
2017-06-13T08:48:06.531Z,3.25
2017-06-13T08:50:34.115Z,2.53
2017-06-13T08:53:02.894Z,4.40
2017-06-13T08:55:30.403Z,2.92
2017-06-13T08:57:57.996Z,3.47
2017-06-13T09:00:25.568Z,3.75
2017-06-13T09:02:53.075Z,5.35
2017-06-13T09:05:20.671Z,2.75
2017-06-13T09:07:48.255Z,2.47
2017-06-13T09:10:16.200Z,4.80
2017-06-13T09:12:43.785Z,4.20
2017-06-13T09:15:11.376Z,3.62
2017-06-13T09:17:39.895Z,2.78
2017-06-13T09:20:07.407Z,5.87
2017-06-13T09:22:35.700Z,3.20
2017-06-13T09:25:03.211Z,2.33
2017-06-13T09:27:30.743Z,4.57
2017-06-13T09:29:58.331Z,5.43
2017-06-13T09:32:25.877Z,7.00
2017-06-13T09:34:54.114Z,3.53
2017-06-13T09:37:22.342Z,2.55
2017-06-13T09:39:51.079Z,2.15
2017-06-13T09:42:18.602Z,4.03
2017-06-13T09:44:46.151Z,2.80
2017-06-13T09:47:13.779Z,3.17
2017-06-13T09:49:41.421Z,3.50
2017-06-13T09:52:09.552Z,5.18
2017-06-13T09:54:37.811Z,3.10
2017-06-13T09:57:05.352Z,2.55
2017-06-13T09:59:32.923Z,5.03
2017-06-13T10:02:00.852Z,6.68
2017-06-13T10:04:28.387Z,5.30
2017-06-13T10:06:56.131Z,3.50
2017-06-13T10:09:23.787Z,3.75
2017-06-13T10:11:52.067Z,2.70
2017-06-13T10:14:19.567Z,3.17
2017-06-13T10:16:47.096Z,3.20
2017-06-13T10:19:15.854Z,3.95
2017-06-13T10:21:43.423Z,2.28
2017-06-13T10:24:11.523Z,2.78
2017-06-13T10:26:39.140Z,3.05
2017-06-13T10:29:06.810Z,6.20
2017-06-13T10:31:34.544Z,4.32
2017-06-13T10:34:02.141Z,2.40
2017-06-13T10:36:30.029Z,2.95
2017-06-13T10:38:57.515Z,4.35
2017-06-13T10:41:25.108Z,3.17
2017-06-13T10:43:52.595Z,1.92
2017-06-13T10:46:20.179Z,3.12
2017-06-13T10:48:47.727Z,1.40
2017-06-13T10:51:15.263Z,3.90
2017-06-13T10:53:42.791Z,3.42
2017-06-13T10:56:11.115Z,4.70
2017-06-13T10:58:38.971Z,2.97
2017-06-13T11:01:06.459Z,3.85
2017-06-13T11:03:33.992Z,3.10
2017-06-13T11:06:01.855Z,3.45
2017-06-13T11:08:29.608Z,2.40
2017-06-13T11:10:57.146Z,1.85
2017-06-13T11:13:24.928Z,5.20
2017-06-13T11:15:52.485Z,2.28
2017-06-13T11:18:19.999Z,2.87
2017-06-13T11:20:48.290Z,4.12
2017-06-13T11:23:15.864Z,1.83
2017-06-13T11:25:43.489Z,6.53
2017-06-13T11:28:11.026Z,7.95
2017-06-13T11:30:38.890Z,4.10
2017-06-13T11:33:06.659Z,3.60
2017-06-13T11:35:34.257Z,2.85
2017-06-13T11:38:02.036Z,7.15
2017-06-13T11:40:29.736Z,3.25
2017-06-13T11:42:57.277Z,2.95
2017-06-13T11:45:24.804Z,3.03
2017-06-13T11:47:52.346Z,4.15
2017-06-13T11:50:19.859Z,2.85
2017-06-13T11:52:47.448Z,3.35
2017-06-13T11:55:15.245Z,3.15
2017-06-13T11:57:42.767Z,2.62
2017-06-13T12:00:10.283Z,3.78
2017-06-13T12:02:38.120Z,3.47
2017-06-13T12:05:06.012Z,3.30
2017-06-13T12:07:34.799Z,4.15
2017-06-13T12:10:02.283Z,3.42
2017-06-13T12:12:29.839Z,3.67
2017-06-13T12:14:57.385Z,3.62
2017-06-13T12:17:24.915Z,4.68
2017-06-13T12:19:52.431Z,4.12
2017-06-13T12:22:19.924Z,3.30
2017-06-13T12:24:47.428Z,3.75
2017-06-13T12:27:14.943Z,6.37
2017-06-13T12:29:42.480Z,6.10
2017-06-13T12:32:10.008Z,5.85
2017-06-13T12:34:37.539Z,6.00
2017-06-13T12:37:05.031Z,6.95
2017-06-13T12:39:32.562Z,5.57
2017-06-13T12:42:00.912Z,5.60
2017-06-13T12:44:28.404Z,3.05
2017-06-13T12:46:55.951Z,5.50
2017-06-13T12:49:23.480Z,5.07
2017-06-13T12:51:50.998Z,3.65
2017-06-13T12:54:18.771Z,5.43
2017-06-13T12:56:46.344Z,7.28
2017-06-13T12:59:13.839Z,4.15
2017-06-13T13:01:42.140Z,3.47
2017-06-13T13:04:09.778Z,6.47
2017-06-13T13:06:37.516Z,4.78
2017-06-13T13:09:05.343Z,6.53
2017-06-13T13:11:33.109Z,8.10
2017-06-13T13:14:00.832Z,5.65
2017-06-13T13:16:28.349Z,4.93
2017-06-13T13:18:55.943Z,5.37
2017-06-13T13:21:23.471Z,6.25
2017-06-13T13:23:50.956Z,8.45
2017-06-13T13:26:19.243Z,6.87
2017-06-13T13:28:47.040Z,5.78
2017-06-13T13:31:14.845Z,9.95
2017-06-13T13:33:42.651Z,5.95
2017-06-13T13:36:10.148Z,8.98
2017-06-13T13:38:37.719Z,7.68
2017-06-13T13:41:06.017Z,5.28
2017-06-13T13:43:33.543Z,4.10
2017-06-13T13:46:01.367Z,4.40
2017-06-13T13:48:29.131Z,5.82
2017-06-13T13:50:56.624Z,4.72
2017-06-13T13:53:24.134Z,6.65
2017-06-13T13:55:51.644Z,3.00
2017-06-13T13:58:19.171Z,4.00
2017-06-13T14:00:46.929Z,6.37
2017-06-13T14:03:14.683Z,5.00
2017-06-13T14:05:42.324Z,4.10
2017-06-13T14:08:09.931Z,6.60
2017-06-13T14:10:37.599Z,6.00
2017-06-13T14:13:05.151Z,7.20
2017-06-13T14:15:32.709Z,12.23
2017-06-13T14:18:00.256Z,7.25
2017-06-13T14:20:28.091Z,4.30
2017-06-13T14:22:55.647Z,8.05
2017-06-13T14:25:24.086Z,5.95
2017-06-13T14:27:51.628Z,4.68
2017-06-13T14:30:19.152Z,6.53
2017-06-13T14:32:46.702Z,8.35
2017-06-13T14:35:14.222Z,6.05
2017-06-13T14:37:41.780Z,6.53
2017-06-13T14:40:09.357Z,4.93
2017-06-13T14:42:36.874Z,4.80
2017-06-13T14:45:05.151Z,5.62
2017-06-13T14:47:32.703Z,5.00
2017-06-13T14:50:00.240Z,5.55
2017-06-13T14:52:27.834Z,5.70
2017-06-13T14:54:56.109Z,6.55
2017-06-13T14:57:23.778Z,4.87
2017-06-13T14:59:51.366Z,4.45
2017-06-13T15:02:18.873Z,9.48
2017-06-13T15:04:46.410Z,6.40
2017-06-13T15:07:13.970Z,5.90
2017-06-13T15:09:41.460Z,4.37
2017-06-13T15:12:08.984Z,7.15
2017-06-13T15:14:36.472Z,5.55
2017-06-13T15:17:03.964Z,10.98
2017-06-13T15:19:31.514Z,8.82
2017-06-13T15:21:59.105Z,5.12
2017-06-13T15:24:27.026Z,6.45
2017-06-13T15:26:54.613Z,5.07
2017-06-13T15:29:22.110Z,5.28
2017-06-13T15:31:50.400Z,7.28
2017-06-13T15:34:17.891Z,8.68
2017-06-13T15:36:45.449Z,6.87
2017-06-13T15:39:12.971Z,6.12
2017-06-13T15:41:40.863Z,7.03
2017-06-13T15:44:08.479Z,7.20
2017-06-13T15:46:36.034Z,6.75
2017-06-13T15:49:03.981Z,15.07
2017-06-13T15:51:31.491Z,8.85
2017-06-13T15:53:59.131Z,7.55
2017-06-13T15:56:26.704Z,6.93
2017-06-13T15:58:54.275Z,11.20
2017-06-13T16:01:21.828Z,5.45
2017-06-13T16:03:49.478Z,7.32
2017-06-13T16:06:17.051Z,6.22
2017-06-13T16:08:44.683Z,5.60
2017-06-13T16:11:12.224Z,8.35
2017-06-13T16:13:40.609Z,5.82
2017-06-13T16:16:08.384Z,5.12
2017-06-13T16:18:35.868Z,7.53
2017-06-13T16:21:03.415Z,8.00
2017-06-13T16:23:30.953Z,5.35
2017-06-13T16:25:58.467Z,6.20
2017-06-13T16:28:26.060Z,8.90
2017-06-13T16:30:53.782Z,6.47
2017-06-13T16:33:21.453Z,12.13
2017-06-13T16:35:48.968Z,6.15
2017-06-13T16:38:16.702Z,6.90
2017-06-13T16:40:45.945Z,6.87
2017-06-13T16:43:14.482Z,6.12
2017-06-13T16:45:41.988Z,6.03
2017-06-13T16:48:09.782Z,7.47
2017-06-13T16:50:37.449Z,6.85
2017-06-13T16:53:05.803Z,8.77
2017-06-13T16:55:33.292Z,8.05
2017-06-13T16:58:01.188Z,5.70
2017-06-13T17:00:28.775Z,6.55
2017-06-13T17:02:56.620Z,6.78
2017-06-13T17:05:24.235Z,8.43
2017-06-13T17:07:52.030Z,6.62
2017-06-13T17:10:19.655Z,5.30
2017-06-13T17:12:47.456Z,9.57
2017-06-13T17:15:15.080Z,7.93
2017-06-13T17:17:42.570Z,5.82
2017-06-13T17:20:10.333Z,6.75
2017-06-13T17:22:37.842Z,10.20
2017-06-13T17:25:06.096Z,6.70
2017-06-13T17:27:33.666Z,8.23
2017-06-13T17:30:01.155Z,7.57
2017-06-13T17:32:29.011Z,7.82
2017-06-13T17:34:56.527Z,10.05
2017-06-13T17:37:24.051Z,8.10
2017-06-13T17:39:51.666Z,7.87
2017-06-13T17:42:20.036Z,8.07
2017-06-13T17:44:47.575Z,8.40
2017-06-13T17:47:15.107Z,9.35
2017-06-13T17:49:43.034Z,15.13
2017-06-13T17:52:10.802Z,11.40
2017-06-13T17:54:38.328Z,9.70
2017-06-13T17:57:05.899Z,7.32
2017-06-13T17:59:34.235Z,7.43
2017-06-13T18:02:01.984Z,9.05
2017-06-13T18:04:29.532Z,8.60
2017-06-13T18:06:57.019Z,7.72
2017-06-13T18:09:24.621Z,22.77
2017-06-13T18:11:52.135Z,8.80
2017-06-13T18:14:19.725Z,8.43
2017-06-13T18:16:47.228Z,7.95
2017-06-13T18:19:14.993Z,10.27
2017-06-13T18:21:42.751Z,7.15
2017-06-13T18:24:10.283Z,7.65
2017-06-13T18:26:37.787Z,9.65
2017-06-13T18:29:05.325Z,8.73
2017-06-13T18:31:33.043Z,8.02
2017-06-13T18:34:01.560Z,8.38
2017-06-13T18:36:29.100Z,9.65
2017-06-13T18:38:56.651Z,7.87
2017-06-13T18:41:24.760Z,9.13
2017-06-13T18:43:52.383Z,11.93
2017-06-13T18:46:19.919Z,8.98
2017-06-13T18:48:47.535Z,9.57
2017-06-13T18:51:15.123Z,8.52
2017-06-13T18:53:42.939Z,9.70
2017-06-13T18:56:10.507Z,8.07
2017-06-13T18:58:38.018Z,10.57
2017-06-13T19:01:05.627Z,8.75
2017-06-13T19:03:33.379Z,8.23
2017-06-13T19:06:00.917Z,8.85
2017-06-13T19:08:28.800Z,8.88
2017-06-13T19:10:56.314Z,10.05
2017-06-13T19:13:24.215Z,8.73
2017-06-13T19:15:51.736Z,9.90
2017-06-13T19:18:19.403Z,10.43
2017-06-13T19:20:46.939Z,10.07
2017-06-13T19:23:15.261Z,10.95
2017-06-13T19:25:42.856Z,11.50
2017-06-13T19:28:10.354Z,10.50
2017-06-13T19:30:38.099Z,10.85
2017-06-13T19:33:06.409Z,11.12
2017-06-13T19:35:33.923Z,15.15
2017-06-13T19:38:01.471Z,11.15
2017-06-13T19:40:29.226Z,11.80
2017-06-13T19:42:56.782Z,9.98
2017-06-13T19:45:25.239Z,11.23
2017-06-13T19:47:53.419Z,11.88
2017-06-13T19:50:22.569Z,9.88
2017-06-13T19:52:50.147Z,10.20
2017-06-13T19:55:17.695Z,14.70
2017-06-13T19:57:45.204Z,9.82
2017-06-13T20:00:12.694Z,10.05
2017-06-13T20:02:40.214Z,11.12
2017-06-13T20:05:07.719Z,11.63
2017-06-13T20:07:35.443Z,10.68
2017-06-13T20:10:03.008Z,11.23
2017-06-13T20:12:31.275Z,12.25
2017-06-13T20:14:58.893Z,13.35
2017-06-13T20:17:26.651Z,11.20
2017-06-13T20:19:54.170Z,11.90
2017-06-13T20:22:21.679Z,13.55
2017-06-13T20:24:49.175Z,18.23
2017-06-13T20:27:27.438Z,11.95
2017-06-13T20:29:55.121Z,13.98
2017-06-13T20:32:23.502Z,13.00
2017-06-13T20:34:51.258Z,13.30
2017-06-13T20:37:18.823Z,13.73
2017-06-13T20:39:46.354Z,12.30
2017-06-13T20:42:13.855Z,15.38
2017-06-13T20:44:42.081Z,13.70
2017-06-13T20:47:09.947Z,13.45
2017-06-13T20:49:37.440Z,13.45
2017-06-13T20:52:05.763Z,14.13
2017-06-13T20:54:33.251Z,13.55
2017-06-13T20:57:00.797Z,14.00
2017-06-13T20:59:28.543Z,15.35
2017-06-13T21:01:56.038Z,14.00
2017-06-13T21:04:23.627Z,13.47
2017-06-13T21:06:51.191Z,14.02
2017-06-13T21:09:18.989Z,14.00
2017-06-13T21:11:46.660Z,14.70
2017-06-13T21:14:14.155Z,13.83
2017-06-13T21:16:42.879Z,14.60
2017-06-13T21:19:10.444Z,13.32
2017-06-13T21:21:38.075Z,16.02
2017-06-13T21:24:05.906Z,18.05
2017-06-13T21:26:33.495Z,13.18
2017-06-13T21:29:01.052Z,14.38
2017-06-13T21:31:28.840Z,14.30
2017-06-13T21:33:56.334Z,16.00
2017-06-13T21:36:23.847Z,14.35
2017-06-13T21:38:51.343Z,14.10
2017-06-13T21:41:18.864Z,13.65
2017-06-13T21:43:46.362Z,17.10
2017-06-13T21:46:13.856Z,13.57
2017-06-13T21:48:41.368Z,12.80
2017-06-13T21:51:09.143Z,15.07
2017-06-13T21:53:37.465Z,13.95
2017-06-13T21:56:05.193Z,13.95
2017-06-13T21:58:32.809Z,12.43
2017-06-13T22:01:00.350Z,14.27
2017-06-13T22:03:27.848Z,13.57
2017-06-13T22:05:55.390Z,14.70
2017-06-13T22:08:22.947Z,13.45
2017-06-13T22:10:50.439Z,13.48
2017-06-13T22:13:17.975Z,12.55
2017-06-13T22:15:46.238Z,12.20
2017-06-13T22:18:13.812Z,11.35
2017-06-13T22:20:41.310Z,11.68
2017-06-13T22:23:08.898Z,13.30
2017-06-13T22:25:36.415Z,12.02
2017-06-13T22:28:04.195Z,11.70
2017-06-13T22:30:31.895Z,12.43
2017-06-13T22:32:59.384Z,11.93
2017-06-13T22:35:26.927Z,13.30
2017-06-13T22:37:54.448Z,13.13
2017-06-13T22:40:22.100Z,13.00
2017-06-13T22:42:49.647Z,13.15
2017-06-13T22:45:17.188Z,14.77
2017-06-13T22:47:44.687Z,13.70
2017-06-13T22:50:12.204Z,16.20
2017-06-13T22:52:39.699Z,14.95
2017-06-13T22:55:07.215Z,13.45
2017-06-13T22:57:34.796Z,14.95
2017-06-13T23:00:02.400Z,15.85
2017-06-13T23:02:30.732Z,14.07
2017-06-13T23:04:58.229Z,14.35
2017-06-13T23:07:25.772Z,14.18
2017-06-13T23:09:53.364Z,14.73
2017-06-13T23:12:20.917Z,14.25
2017-06-13T23:14:48.497Z,14.38
2017-06-13T23:17:16.001Z,13.35
2017-06-13T23:19:43.559Z,13.82
2017-06-13T23:22:11.073Z,13.23
2017-06-13T23:24:38.573Z,14.18
2017-06-13T23:27:07.012Z,13.13
2017-06-13T23:29:34.535Z,13.93
2017-06-13T23:32:02.096Z,13.48
2017-06-13T23:34:29.624Z,11.95
2017-06-13T23:36:57.920Z,12.52
2017-06-13T23:39:25.439Z,16.25
2017-06-13T23:41:53.178Z,14.25
2017-06-13T23:44:20.691Z,12.65
2017-06-13T23:46:48.257Z,11.20
2017-06-13T23:49:15.826Z,14.32
2017-06-13T23:51:43.342Z,12.52
2017-06-13T23:54:11.677Z,15.35
2017-06-13T23:56:39.271Z,13.40
2017-06-13T23:59:06.791Z,13.57
